sensor_id;sensor_type;location;lat;lon;timestamp;P1;durP1;ratioP1;P2;durP2;ratioP2
65636;SDS011;52327;42.622;23.316;2022-10-13T00:00:32;1.55;;;0.95;;
65636;SDS011;52327;42.622;23.316;2022-10-13T00:02:58;3.03;;;1.25;;
65636;SDS011;52327;42.622;23.316;2022-10-13T00:05:26;1.13;;;1.05;;
65636;SDS011;52327;42.622;23.316;2022-10-13T00:07:51;1.58;;;0.90;;
65636;SDS011;52327;42.622;23.316;2022-10-13T00:10:17;0.45;;;0.45;;
65636;SDS011;52327;42.622;23.316;2022-10-13T00:12:42;0.77;;;0.60;;
65636;SDS011;52327;42.622;23.316;2022-10-13T00:15:08;0.93;;;0.63;;
65636;SDS011;52327;42.622;23.316;2022-10-13T00:17:34;0.47;;;0.47;;
65636;SDS011;52327;42.622;23.316;2022-10-13T00:20:03;0.93;;;0.85;;
65636;SDS011;52327;42.622;23.316;2022-10-13T00:22:30;0.70;;;0.60;;
65636;SDS011;52327;42.622;23.316;2022-10-13T00:24:56;1.38;;;0.90;;
65636;SDS011;52327;42.622;23.316;2022-10-13T00:27:21;1.85;;;0.90;;
65636;SDS011;52327;42.622;23.316;2022-10-13T00:29:49;1.40;;;1.17;;
65636;SDS011;52327;42.622;23.316;2022-10-13T00:32:15;1.45;;;0.98;;
65636;SDS011;52327;42.622;23.316;2022-10-13T00:34:40;1.77;;;1.00;;
65636;SDS011;52327;42.622;23.316;2022-10-13T00:37:06;1.42;;;0.75;;
65636;SDS011;52327;42.622;23.316;2022-10-13T00:39:31;0.40;;;0.40;;
65636;SDS011;52327;42.622;23.316;2022-10-13T00:41:57;0.93;;;0.82;;
65636;SDS011;52327;42.622;23.316;2022-10-13T00:47:23;1.23;;;0.70;;
65636;SDS011;52327;42.622;23.316;2022-10-13T00:49:50;2.55;;;1.95;;
65636;SDS011;52327;42.622;23.316;2022-10-13T00:52:16;1.02;;;0.82;;
65636;SDS011;52327;42.622;23.316;2022-10-13T00:54:44;5.13;;;1.83;;
65636;SDS011;52327;42.622;23.316;2022-10-13T00:57:10;1.23;;;0.73;;
65636;SDS011;52327;42.622;23.316;2022-10-13T00:59:36;0.93;;;0.93;;
65636;SDS011;52327;42.622;23.316;2022-10-13T01:02:03;2.00;;;1.80;;
65636;SDS011;52327;42.622;23.316;2022-10-13T01:04:30;1.27;;;0.82;;
65636;SDS011;52327;42.622;23.316;2022-10-13T01:07:01;1.65;;;1.27;;
65636;SDS011;52327;42.622;23.316;2022-10-13T01:09:27;4.28;;;2.58;;
65636;SDS011;52327;42.622;23.316;2022-10-13T01:14:49;3.15;;;1.08;;
65636;SDS011;52327;42.622;23.316;2022-10-13T01:28:31;2.60;;;1.33;;
65636;SDS011;52327;42.622;23.316;2022-10-13T01:31:19;1.63;;;0.80;;
65636;SDS011;52327;42.622;23.316;2022-10-13T01:34:11;3.83;;;1.27;;
65636;SDS011;52327;42.622;23.316;2022-10-13T01:36:46;1.40;;;1.08;;
65636;SDS011;52327;42.622;23.316;2022-10-13T01:39:13;0.88;;;0.77;;
65636;SDS011;52327;42.622;23.316;2022-10-13T01:41:53;1.63;;;1.37;;
65636;SDS011;52327;42.622;23.316;2022-10-13T01:44:26;1.25;;;1.15;;
65636;SDS011;52327;42.622;23.316;2022-10-13T01:46:56;3.78;;;1.42;;
65636;SDS011;52327;42.622;23.316;2022-10-13T01:49:25;1.00;;;0.75;;
65636;SDS011;52327;42.622;23.316;2022-10-13T01:51:55;1.15;;;0.98;;
65636;SDS011;52327;42.622;23.316;2022-10-13T01:54:25;1.52;;;1.27;;
65636;SDS011;52327;42.622;23.316;2022-10-13T01:56:51;0.65;;;0.65;;
65636;SDS011;52327;42.622;23.316;2022-10-13T01:59:18;2.78;;;0.73;;
65636;SDS011;52327;42.622;23.316;2022-10-13T02:05:16;1.17;;;1.08;;
65636;SDS011;52327;42.622;23.316;2022-10-13T02:07:46;0.90;;;0.80;;
65636;SDS011;52327;42.622;23.316;2022-10-13T02:10:22;1.40;;;1.30;;
65636;SDS011;52327;42.622;23.316;2022-10-13T02:12:56;0.68;;;0.68;;
65636;SDS011;52327;42.622;23.316;2022-10-13T02:15:27;0.82;;;0.82;;
65636;SDS011;52327;42.622;23.316;2022-10-13T02:17:56;0.93;;;0.93;;
65636;SDS011;52327;42.622;23.316;2022-10-13T02:20:23;1.55;;;0.95;;
65636;SDS011;52327;42.622;23.316;2022-10-13T02:22:50;2.38;;;1.42;;
65636;SDS011;52327;42.622;23.316;2022-10-13T02:25:21;1.35;;;0.73;;
65636;SDS011;52327;42.622;23.316;2022-10-13T02:27:46;9.43;;;1.60;;
65636;SDS011;52327;42.622;23.316;2022-10-13T02:30:18;0.68;;;0.60;;
65636;SDS011;52327;42.622;23.316;2022-10-13T02:32:49;0.40;;;0.40;;
65636;SDS011;52327;42.622;23.316;2022-10-13T02:35:15;0.93;;;0.88;;
65636;SDS011;52327;42.622;23.316;2022-10-13T02:37:40;0.77;;;0.77;;
65636;SDS011;52327;42.622;23.316;2022-10-13T02:40:06;0.60;;;0.60;;
65636;SDS011;52327;42.622;23.316;2022-10-13T02:42:32;0.63;;;0.57;;
65636;SDS011;52327;42.622;23.316;2022-10-13T02:44:57;0.63;;;0.63;;
65636;SDS011;52327;42.622;23.316;2022-10-13T02:47:23;0.38;;;0.38;;
65636;SDS011;52327;42.622;23.316;2022-10-13T02:49:50;0.40;;;0.30;;
65636;SDS011;52327;42.622;23.316;2022-10-13T02:52:15;1.08;;;0.77;;
65636;SDS011;52327;42.622;23.316;2022-10-13T02:54:41;0.70;;;0.70;;
65636;SDS011;52327;42.622;23.316;2022-10-13T02:57:06;0.77;;;0.55;;
65636;SDS011;52327;42.622;23.316;2022-10-13T02:59:32;0.80;;;0.77;;
65636;SDS011;52327;42.622;23.316;2022-10-13T03:01:57;0.80;;;0.60;;
65636;SDS011;52327;42.622;23.316;2022-10-13T03:04:23;0.68;;;0.57;;
65636;SDS011;52327;42.622;23.316;2022-10-13T03:06:48;0.43;;;0.20;;
65636;SDS011;52327;42.622;23.316;2022-10-13T03:09:13;1.52;;;1.02;;
65636;SDS011;52327;42.622;23.316;2022-10-13T03:11:39;0.90;;;0.70;;
65636;SDS011;52327;42.622;23.316;2022-10-13T03:14:04;2.20;;;0.60;;
65636;SDS011;52327;42.622;23.316;2022-10-13T03:16:30;1.83;;;0.77;;
65636;SDS011;52327;42.622;23.316;2022-10-13T03:18:55;0.60;;;0.60;;
65636;SDS011;52327;42.622;23.316;2022-10-13T03:21:21;1.77;;;1.45;;
65636;SDS011;52327;42.622;23.316;2022-10-13T03:23:50;0.43;;;0.43;;
65636;SDS011;52327;42.622;23.316;2022-10-13T03:26:15;1.75;;;0.75;;
65636;SDS011;52327;42.622;23.316;2022-10-13T03:28:41;1.77;;;0.80;;
65636;SDS011;52327;42.622;23.316;2022-10-13T03:31:07;1.50;;;1.17;;
65636;SDS011;52327;42.622;23.316;2022-10-13T03:33:34;0.82;;;0.75;;
65636;SDS011;52327;42.622;23.316;2022-10-13T03:36:00;0.20;;;0.20;;
65636;SDS011;52327;42.622;23.316;2022-10-13T03:38:28;1.75;;;1.02;;
65636;SDS011;52327;42.622;23.316;2022-10-13T03:40:55;0.98;;;0.82;;
65636;SDS011;52327;42.622;23.316;2022-10-13T03:43:20;1.25;;;0.98;;
65636;SDS011;52327;42.622;23.316;2022-10-13T03:45:54;0.93;;;0.90;;
65636;SDS011;52327;42.622;23.316;2022-10-13T03:48:20;1.05;;;0.63;;
65636;SDS011;52327;42.622;23.316;2022-10-13T03:50:46;1.20;;;1.13;;
65636;SDS011;52327;42.622;23.316;2022-10-13T03:53:11;1.15;;;1.05;;
65636;SDS011;52327;42.622;23.316;2022-10-13T03:55:36;1.70;;;1.48;;
65636;SDS011;52327;42.622;23.316;2022-10-13T03:58:02;2.28;;;1.63;;
65636;SDS011;52327;42.622;23.316;2022-10-13T04:00:27;1.48;;;1.33;;
65636;SDS011;52327;42.622;23.316;2022-10-13T04:02:53;2.15;;;1.42;;
65636;SDS011;52327;42.622;23.316;2022-10-13T04:05:18;1.80;;;1.55;;
65636;SDS011;52327;42.622;23.316;2022-10-13T04:07:43;1.13;;;1.10;;
65636;SDS011;52327;42.622;23.316;2022-10-13T04:10:09;2.10;;;1.90;;
65636;SDS011;52327;42.622;23.316;2022-10-13T04:12:34;2.47;;;1.40;;
65636;SDS011;52327;42.622;23.316;2022-10-13T04:15:00;3.38;;;1.67;;
65636;SDS011;52327;42.622;23.316;2022-10-13T04:17:25;3.35;;;1.83;;
65636;SDS011;52327;42.622;23.316;2022-10-13T04:19:50;2.00;;;1.42;;
65636;SDS011;52327;42.622;23.316;2022-10-13T04:22:16;8.60;;;2.25;;
65636;SDS011;52327;42.622;23.316;2022-10-13T04:24:41;1.80;;;1.20;;
65636;SDS011;52327;42.622;23.316;2022-10-13T04:27:07;4.00;;;2.58;;
65636;SDS011;52327;42.622;23.316;2022-10-13T04:29:32;7.97;;;4.82;;
65636;SDS011;52327;42.622;23.316;2022-10-13T04:31:58;2.88;;;1.50;;
65636;SDS011;52327;42.622;23.316;2022-10-13T04:34:24;2.20;;;1.45;;
65636;SDS011;52327;42.622;23.316;2022-10-13T04:36:49;1.95;;;1.05;;
65636;SDS011;52327;42.622;23.316;2022-10-13T04:39:16;2.10;;;1.60;;
65636;SDS011;52327;42.622;23.316;2022-10-13T04:41:42;1.00;;;0.88;;
65636;SDS011;52327;42.622;23.316;2022-10-13T04:44:08;0.85;;;0.82;;
65636;SDS011;52327;42.622;23.316;2022-10-13T04:46:33;0.98;;;0.88;;
65636;SDS011;52327;42.622;23.316;2022-10-13T04:48:58;2.15;;;1.38;;
65636;SDS011;52327;42.622;23.316;2022-10-13T04:51:24;3.50;;;1.88;;
65636;SDS011;52327;42.622;23.316;2022-10-13T04:53:56;1.63;;;0.73;;
65636;SDS011;52327;42.622;23.316;2022-10-13T04:56:22;1.73;;;1.25;;
65636;SDS011;52327;42.622;23.316;2022-10-13T05:01:24;4.95;;;0.88;;
65636;SDS011;52327;42.622;23.316;2022-10-13T05:03:53;1.02;;;0.85;;
65636;SDS011;52327;42.622;23.316;2022-10-13T05:06:21;2.13;;;1.42;;
65636;SDS011;52327;42.622;23.316;2022-10-13T05:08:51;0.63;;;0.63;;
65636;SDS011;52327;42.622;23.316;2022-10-13T05:11:16;1.83;;;1.55;;
65636;SDS011;52327;42.622;23.316;2022-10-13T05:13:44;2.10;;;1.17;;
65636;SDS011;52327;42.622;23.316;2022-10-13T05:16:11;1.77;;;1.50;;
65636;SDS011;52327;42.622;23.316;2022-10-13T05:18:37;2.13;;;1.70;;
65636;SDS011;52327;42.622;23.316;2022-10-13T05:23:32;2.17;;;1.60;;
65636;SDS011;52327;42.622;23.316;2022-10-13T05:26:00;1.40;;;1.30;;
65636;SDS011;52327;42.622;23.316;2022-10-13T05:28:28;1.17;;;1.05;;
65636;SDS011;52327;42.622;23.316;2022-10-13T05:30:54;1.08;;;0.98;;
65636;SDS011;52327;42.622;23.316;2022-10-13T05:33:20;2.45;;;1.38;;
65636;SDS011;52327;42.622;23.316;2022-10-13T05:35:45;3.63;;;1.80;;
65636;SDS011;52327;42.622;23.316;2022-10-13T05:38:11;2.95;;;2.63;;
65636;SDS011;52327;42.622;23.316;2022-10-13T05:40:36;3.17;;;2.25;;
65636;SDS011;52327;42.622;23.316;2022-10-13T05:43:08;2.20;;;1.75;;
65636;SDS011;52327;42.622;23.316;2022-10-13T05:45:49;2.97;;;1.65;;
65636;SDS011;52327;42.622;23.316;2022-10-13T05:48:14;3.38;;;2.00;;
65636;SDS011;52327;42.622;23.316;2022-10-13T05:50:40;4.93;;;3.38;;
65636;SDS011;52327;42.622;23.316;2022-10-13T05:53:05;3.30;;;2.22;;
65636;SDS011;52327;42.622;23.316;2022-10-13T05:55:30;4.32;;;3.22;;
65636;SDS011;52327;42.622;23.316;2022-10-13T05:57:56;2.67;;;2.15;;
65636;SDS011;52327;42.622;23.316;2022-10-13T06:00:21;2.53;;;2.10;;
65636;SDS011;52327;42.622;23.316;2022-10-13T06:02:58;11.52;;;6.43;;
65636;SDS011;52327;42.622;23.316;2022-10-13T06:05:30;5.97;;;3.53;;
65636;SDS011;52327;42.622;23.316;2022-10-13T06:07:56;8.45;;;7.10;;
65636;SDS011;52327;42.622;23.316;2022-10-13T06:10:23;5.28;;;4.20;;
65636;SDS011;52327;42.622;23.316;2022-10-13T06:12:49;4.43;;;3.63;;
65636;SDS011;52327;42.622;23.316;2022-10-13T06:15:15;6.13;;;3.83;;
65636;SDS011;52327;42.622;23.316;2022-10-13T06:17:43;3.80;;;2.72;;
65636;SDS011;52327;42.622;23.316;2022-10-13T06:20:08;4.35;;;2.75;;
65636;SDS011;52327;42.622;23.316;2022-10-13T06:22:35;3.83;;;2.38;;
65636;SDS011;52327;42.622;23.316;2022-10-13T06:25:03;5.25;;;3.22;;
65636;SDS011;52327;42.622;23.316;2022-10-13T06:27:30;5.55;;;3.00;;
65636;SDS011;52327;42.622;23.316;2022-10-13T06:29:56;3.30;;;2.33;;
65636;SDS011;52327;42.622;23.316;2022-10-13T06:32:21;5.32;;;2.17;;
65636;SDS011;52327;42.622;23.316;2022-10-13T06:34:47;6.60;;;4.10;;
65636;SDS011;52327;42.622;23.316;2022-10-13T06:37:12;4.55;;;3.70;;
65636;SDS011;52327;42.622;23.316;2022-10-13T06:39:38;5.32;;;4.03;;
65636;SDS011;52327;42.622;23.316;2022-10-13T06:42:04;7.90;;;4.65;;
65636;SDS011;52327;42.622;23.316;2022-10-13T06:44:41;4.72;;;3.15;;
65636;SDS011;52327;42.622;23.316;2022-10-13T06:50:41;7.38;;;2.33;;
65636;SDS011;52327;42.622;23.316;2022-10-13T06:53:14;4.40;;;2.70;;
65636;SDS011;52327;42.622;23.316;2022-10-13T07:05:26;1.90;;;1.80;;
65636;SDS011;52327;42.622;23.316;2022-10-13T07:18:12;3.03;;;1.98;;
65636;SDS011;52327;42.622;23.316;2022-10-13T07:20:49;4.25;;;3.00;;
65636;SDS011;52327;42.622;23.316;2022-10-13T07:23:22;7.15;;;4.57;;
65636;SDS011;52327;42.622;23.316;2022-10-13T07:37:41;3.17;;;2.65;;
65636;SDS011;52327;42.622;23.316;2022-10-13T07:43:31;4.40;;;3.20;;
65636;SDS011;52327;42.622;23.316;2022-10-13T08:06:25;6.38;;;3.70;;
65636;SDS011;52327;42.622;23.316;2022-10-13T08:08:51;10.73;;;3.78;;
65636;SDS011;52327;42.622;23.316;2022-10-13T08:11:21;5.93;;;3.58;;
65636;SDS011;52327;42.622;23.316;2022-10-13T08:13:49;5.55;;;3.00;;
65636;SDS011;52327;42.622;23.316;2022-10-13T08:16:16;4.72;;;3.03;;
65636;SDS011;52327;42.622;23.316;2022-10-13T08:18:44;4.03;;;3.40;;
65636;SDS011;52327;42.622;23.316;2022-10-13T08:21:23;7.95;;;2.95;;
65636;SDS011;52327;42.622;23.316;2022-10-13T08:23:48;8.48;;;4.22;;
65636;SDS011;52327;42.622;23.316;2022-10-13T08:26:24;6.25;;;3.10;;
65636;SDS011;52327;42.622;23.316;2022-10-13T08:28:52;4.57;;;2.95;;
65636;SDS011;52327;42.622;23.316;2022-10-13T08:31:18;7.70;;;5.10;;
65636;SDS011;52327;42.622;23.316;2022-10-13T08:33:44;8.77;;;4.93;;
65636;SDS011;52327;42.622;23.316;2022-10-13T08:36:13;8.45;;;4.82;;
65636;SDS011;52327;42.622;23.316;2022-10-13T08:38:40;6.53;;;3.10;;
65636;SDS011;52327;42.622;23.316;2022-10-13T08:41:15;5.90;;;2.65;;
65636;SDS011;52327;42.622;23.316;2022-10-13T08:43:44;9.02;;;3.67;;
65636;SDS011;52327;42.622;23.316;2022-10-13T08:46:34;4.82;;;3.65;;
65636;SDS011;52327;42.622;23.316;2022-10-13T08:49:06;4.70;;;3.28;;
65636;SDS011;52327;42.622;23.316;2022-10-13T08:51:32;3.42;;;2.65;;
65636;SDS011;52327;42.622;23.316;2022-10-13T08:53:58;7.22;;;3.38;;
65636;SDS011;52327;42.622;23.316;2022-10-13T08:56:24;4.95;;;3.28;;
65636;SDS011;52327;42.622;23.316;2022-10-13T08:58:53;6.23;;;2.93;;
65636;SDS011;52327;42.622;23.316;2022-10-13T09:01:26;5.18;;;3.80;;
65636;SDS011;52327;42.622;23.316;2022-10-13T09:03:54;4.78;;;2.95;;
65636;SDS011;52327;42.622;23.316;2022-10-13T09:06:24;5.60;;;3.20;;
65636;SDS011;52327;42.622;23.316;2022-10-13T09:09:03;4.53;;;2.78;;
65636;SDS011;52327;42.622;23.316;2022-10-13T09:11:37;7.57;;;3.15;;
65636;SDS011;52327;42.622;23.316;2022-10-13T09:14:05;5.28;;;3.55;;
65636;SDS011;52327;42.622;23.316;2022-10-13T09:16:40;2.40;;;1.95;;
65636;SDS011;52327;42.622;23.316;2022-10-13T09:19:22;5.75;;;2.72;;
65636;SDS011;52327;42.622;23.316;2022-10-13T09:22:12;6.20;;;2.50;;
65636;SDS011;52327;42.622;23.316;2022-10-13T09:24:44;4.20;;;2.92;;
65636;SDS011;52327;42.622;23.316;2022-10-13T09:27:13;4.90;;;3.33;;
65636;SDS011;52327;42.622;23.316;2022-10-13T09:29:40;5.32;;;3.20;;
65636;SDS011;52327;42.622;23.316;2022-10-13T09:32:18;6.47;;;4.07;;
65636;SDS011;52327;42.622;23.316;2022-10-13T09:34:45;5.93;;;4.07;;
65636;SDS011;52327;42.622;23.316;2022-10-13T09:37:18;4.75;;;2.92;;
65636;SDS011;52327;42.622;23.316;2022-10-13T09:42:48;4.93;;;3.03;;
65636;SDS011;52327;42.622;23.316;2022-10-13T09:45:16;4.85;;;3.47;;
65636;SDS011;52327;42.622;23.316;2022-10-13T09:47:48;3.95;;;3.15;;
65636;SDS011;52327;42.622;23.316;2022-10-13T09:50:23;6.57;;;3.58;;
65636;SDS011;52327;42.622;23.316;2022-10-13T09:52:51;8.52;;;4.15;;
65636;SDS011;52327;42.622;23.316;2022-10-13T09:55:30;4.45;;;2.83;;
65636;SDS011;52327;42.622;23.316;2022-10-13T09:57:59;5.20;;;3.47;;
65636;SDS011;52327;42.622;23.316;2022-10-13T10:00:30;5.88;;;3.17;;
65636;SDS011;52327;42.622;23.316;2022-10-13T10:08:32;4.80;;;3.47;;
65636;SDS011;52327;42.622;23.316;2022-10-13T10:10:59;3.95;;;3.03;;
65636;SDS011;52327;42.622;23.316;2022-10-13T10:13:27;5.47;;;3.22;;
65636;SDS011;52327;42.622;23.316;2022-10-13T10:15:58;9.35;;;3.53;;
65636;SDS011;52327;42.622;23.316;2022-10-13T10:21:11;8.27;;;3.42;;
65636;SDS011;52327;42.622;23.316;2022-10-13T10:24:02;10.10;;;3.80;;
65636;SDS011;52327;42.622;23.316;2022-10-13T10:26:46;7.53;;;4.45;;
65636;SDS011;52327;42.622;23.316;2022-10-13T10:29:23;5.80;;;3.00;;
65636;SDS011;52327;42.622;23.316;2022-10-13T10:39:47;5.93;;;3.15;;
65636;SDS011;52327;42.622;23.316;2022-10-13T10:42:42;4.88;;;3.42;;
65636;SDS011;52327;42.622;23.316;2022-10-13T10:45:13;3.53;;;2.50;;
65636;SDS011;52327;42.622;23.316;2022-10-13T10:47:52;4.93;;;3.00;;
65636;SDS011;52327;42.622;23.316;2022-10-13T10:50:23;5.95;;;3.95;;
65636;SDS011;52327;42.622;23.316;2022-10-13T10:52:56;5.82;;;3.80;;
65636;SDS011;52327;42.622;23.316;2022-10-13T11:04:14;6.80;;;2.80;;
65636;SDS011;52327;42.622;23.316;2022-10-13T11:06:56;6.07;;;4.13;;
65636;SDS011;52327;42.622;23.316;2022-10-13T11:17:15;5.80;;;3.33;;
65636;SDS011;52327;42.622;23.316;2022-10-13T11:19:57;7.82;;;3.67;;
65636;SDS011;52327;42.622;23.316;2022-10-13T11:22:27;4.50;;;2.75;;
65636;SDS011;52327;42.622;23.316;2022-10-13T11:24:59;3.15;;;1.98;;
65636;SDS011;52327;42.622;23.316;2022-10-13T11:27:36;4.97;;;2.70;;
65636;SDS011;52327;42.622;23.316;2022-10-13T11:30:04;4.78;;;3.38;;
65636;SDS011;52327;42.622;23.316;2022-10-13T11:32:50;7.43;;;5.07;;
65636;SDS011;52327;42.622;23.316;2022-10-13T11:35:23;12.40;;;7.78;;
65636;SDS011;52327;42.622;23.316;2022-10-13T11:37:55;9.88;;;5.55;;
65636;SDS011;52327;42.622;23.316;2022-10-13T11:40:53;4.38;;;2.88;;
65636;SDS011;52327;42.622;23.316;2022-10-13T11:46:24;4.13;;;3.15;;
65636;SDS011;52327;42.622;23.316;2022-10-13T11:56:47;4.55;;;2.80;;
65636;SDS011;52327;42.622;23.316;2022-10-13T11:59:28;6.80;;;2.83;;
65636;SDS011;52327;42.622;23.316;2022-10-13T12:02:05;3.90;;;2.60;;
65636;SDS011;52327;42.622;23.316;2022-10-13T12:04:38;3.60;;;2.20;;
65636;SDS011;52327;42.622;23.316;2022-10-13T12:07:06;6.32;;;4.05;;
65636;SDS011;52327;42.622;23.316;2022-10-13T12:09:35;4.15;;;2.70;;
65636;SDS011;52327;42.622;23.316;2022-10-13T12:12:14;4.32;;;3.35;;
65636;SDS011;52327;42.622;23.316;2022-10-13T12:14:42;5.07;;;2.42;;
65636;SDS011;52327;42.622;23.316;2022-10-13T12:17:33;3.78;;;2.70;;
65636;SDS011;52327;42.622;23.316;2022-10-13T12:20:22;3.28;;;2.40;;
65636;SDS011;52327;42.622;23.316;2022-10-13T12:22:53;4.57;;;2.35;;
65636;SDS011;52327;42.622;23.316;2022-10-13T12:25:20;6.43;;;3.90;;
65636;SDS011;52327;42.622;23.316;2022-10-13T12:27:49;7.82;;;5.03;;
65636;SDS011;52327;42.622;23.316;2022-10-13T12:32:59;5.68;;;3.55;;
65636;SDS011;52327;42.622;23.316;2022-10-13T12:35:26;5.85;;;3.05;;
65636;SDS011;52327;42.622;23.316;2022-10-13T12:37:56;4.97;;;2.92;;
65636;SDS011;52327;42.622;23.316;2022-10-13T12:40:24;6.50;;;2.50;;
65636;SDS011;52327;42.622;23.316;2022-10-13T12:42:51;4.10;;;2.42;;
65636;SDS011;52327;42.622;23.316;2022-10-13T12:45:27;3.63;;;2.30;;
65636;SDS011;52327;42.622;23.316;2022-10-13T12:47:56;5.53;;;3.05;;
65636;SDS011;52327;42.622;23.316;2022-10-13T12:50:30;6.28;;;3.05;;
65636;SDS011;52327;42.622;23.316;2022-10-13T12:55:32;4.40;;;2.65;;
65636;SDS011;52327;42.622;23.316;2022-10-13T12:57:59;15.10;;;2.75;;
65636;SDS011;52327;42.622;23.316;2022-10-13T13:00:25;4.13;;;2.30;;
65636;SDS011;52327;42.622;23.316;2022-10-13T13:02:53;2.60;;;1.90;;
65636;SDS011;52327;42.622;23.316;2022-10-13T13:05:34;4.22;;;2.05;;
65636;SDS011;52327;42.622;23.316;2022-10-13T13:08:00;4.80;;;2.47;;
65636;SDS011;52327;42.622;23.316;2022-10-13T13:10:28;4.28;;;2.65;;
65636;SDS011;52327;42.622;23.316;2022-10-13T13:12:54;4.90;;;2.88;;
65636;SDS011;52327;42.622;23.316;2022-10-13T13:17:48;3.67;;;2.72;;
65636;SDS011;52327;42.622;23.316;2022-10-13T13:20:19;3.70;;;2.17;;
65636;SDS011;52327;42.622;23.316;2022-10-13T13:22:53;3.70;;;2.35;;
65636;SDS011;52327;42.622;23.316;2022-10-13T13:25:19;5.43;;;2.42;;
65636;SDS011;52327;42.622;23.316;2022-10-13T13:27:44;4.82;;;3.05;;
65636;SDS011;52327;42.622;23.316;2022-10-13T13:30:11;5.18;;;2.67;;
65636;SDS011;52327;42.622;23.316;2022-10-13T13:32:38;3.17;;;1.92;;
65636;SDS011;52327;42.622;23.316;2022-10-13T13:35:04;2.92;;;1.80;;
65636;SDS011;52327;42.622;23.316;2022-10-13T13:37:32;5.13;;;2.63;;
65636;SDS011;52327;42.622;23.316;2022-10-13T13:40:01;5.05;;;2.83;;
65636;SDS011;52327;42.622;23.316;2022-10-13T13:42:27;2.95;;;2.05;;
65636;SDS011;52327;42.622;23.316;2022-10-13T13:44:53;3.92;;;2.30;;
65636;SDS011;52327;42.622;23.316;2022-10-13T13:47:20;8.38;;;2.08;;
65636;SDS011;52327;42.622;23.316;2022-10-13T13:49:50;7.10;;;2.60;;
65636;SDS011;52327;42.622;23.316;2022-10-13T13:52:18;2.83;;;2.00;;
65636;SDS011;52327;42.622;23.316;2022-10-13T13:54:44;3.80;;;2.75;;
65636;SDS011;52327;42.622;23.316;2022-10-13T13:57:10;4.78;;;2.22;;
65636;SDS011;52327;42.622;23.316;2022-10-13T13:59:37;3.60;;;2.28;;
65636;SDS011;52327;42.622;23.316;2022-10-13T14:02:09;1.83;;;1.73;;
65636;SDS011;52327;42.622;23.316;2022-10-13T14:04:42;3.05;;;2.45;;
65636;SDS011;52327;42.622;23.316;2022-10-13T14:07:08;4.75;;;2.25;;
65636;SDS011;52327;42.622;23.316;2022-10-13T14:09:34;4.00;;;2.35;;
65636;SDS011;52327;42.622;23.316;2022-10-13T14:11:59;3.72;;;2.22;;
65636;SDS011;52327;42.622;23.316;2022-10-13T14:14:25;3.67;;;2.72;;
65636;SDS011;52327;42.622;23.316;2022-10-13T14:16:51;5.38;;;2.60;;
65636;SDS011;52327;42.622;23.316;2022-10-13T14:19:16;1.65;;;1.50;;
65636;SDS011;52327;42.622;23.316;2022-10-13T14:21:42;2.85;;;1.80;;
65636;SDS011;52327;42.622;23.316;2022-10-13T14:24:10;3.80;;;2.20;;
65636;SDS011;52327;42.622;23.316;2022-10-13T14:26:35;1.98;;;1.50;;
65636;SDS011;52327;42.622;23.316;2022-10-13T14:29:01;2.92;;;1.48;;
65636;SDS011;52327;42.622;23.316;2022-10-13T14:31:26;3.40;;;1.85;;
65636;SDS011;52327;42.622;23.316;2022-10-13T14:33:52;4.28;;;1.55;;
65636;SDS011;52327;42.622;23.316;2022-10-13T14:36:20;3.03;;;1.35;;
65636;SDS011;52327;42.622;23.316;2022-10-13T14:38:46;2.72;;;1.48;;
65636;SDS011;52327;42.622;23.316;2022-10-13T14:41:11;2.75;;;1.80;;
65636;SDS011;52327;42.622;23.316;2022-10-13T14:43:39;1.77;;;1.30;;
65636;SDS011;52327;42.622;23.316;2022-10-13T14:46:05;1.95;;;1.30;;
65636;SDS011;52327;42.622;23.316;2022-10-13T14:48:34;1.45;;;0.88;;
65636;SDS011;52327;42.622;23.316;2022-10-13T14:51:04;0.77;;;0.70;;
65636;SDS011;52327;42.622;23.316;2022-10-13T14:53:33;1.33;;;1.23;;
65636;SDS011;52327;42.622;23.316;2022-10-13T14:56:00;2.60;;;1.25;;
65636;SDS011;52327;42.622;23.316;2022-10-13T14:58:25;1.55;;;1.17;;
65636;SDS011;52327;42.622;23.316;2022-10-13T15:00:51;1.70;;;1.13;;
65636;SDS011;52327;42.622;23.316;2022-10-13T15:03:17;1.02;;;0.82;;
65636;SDS011;52327;42.622;23.316;2022-10-13T15:05:43;2.03;;;0.85;;
65636;SDS011;52327;42.622;23.316;2022-10-13T15:08:08;1.45;;;1.00;;
65636;SDS011;52327;42.622;23.316;2022-10-13T15:10:34;0.80;;;0.70;;
65636;SDS011;52327;42.622;23.316;2022-10-13T15:12:59;1.63;;;1.10;;
65636;SDS011;52327;42.622;23.316;2022-10-13T15:15:25;1.17;;;0.85;;
65636;SDS011;52327;42.622;23.316;2022-10-13T15:17:50;0.93;;;0.50;;
65636;SDS011;52327;42.622;23.316;2022-10-13T15:20:16;1.23;;;1.02;;
65636;SDS011;52327;42.622;23.316;2022-10-13T15:22:41;1.15;;;0.70;;
65636;SDS011;52327;42.622;23.316;2022-10-13T15:25:07;1.17;;;1.05;;
65636;SDS011;52327;42.622;23.316;2022-10-13T15:27:34;1.27;;;0.60;;
65636;SDS011;52327;42.622;23.316;2022-10-13T15:30:00;0.80;;;0.80;;
65636;SDS011;52327;42.622;23.316;2022-10-13T15:32:26;1.08;;;0.70;;
65636;SDS011;52327;42.622;23.316;2022-10-13T15:34:51;2.03;;;1.30;;
65636;SDS011;52327;42.622;23.316;2022-10-13T15:37:17;0.82;;;0.73;;
65636;SDS011;52327;42.622;23.316;2022-10-13T15:39:42;0.73;;;0.73;;
65636;SDS011;52327;42.622;23.316;2022-10-13T15:42:08;3.70;;;0.93;;
65636;SDS011;52327;42.622;23.316;2022-10-13T15:44:34;0.52;;;0.45;;
65636;SDS011;52327;42.622;23.316;2022-10-13T15:46:59;1.73;;;1.10;;
65636;SDS011;52327;42.622;23.316;2022-10-13T15:49:25;1.45;;;0.63;;
65636;SDS011;52327;42.622;23.316;2022-10-13T15:51:50;3.20;;;2.10;;
65636;SDS011;52327;42.622;23.316;2022-10-13T15:54:16;2.75;;;1.48;;
65636;SDS011;52327;42.622;23.316;2022-10-13T15:56:42;2.28;;;1.05;;
65636;SDS011;52327;42.622;23.316;2022-10-13T15:59:08;2.22;;;1.35;;
65636;SDS011;52327;42.622;23.316;2022-10-13T16:01:34;1.67;;;1.10;;
65636;SDS011;52327;42.622;23.316;2022-10-13T16:04:00;1.23;;;0.93;;
65636;SDS011;52327;42.622;23.316;2022-10-13T16:06:26;1.40;;;0.93;;
65636;SDS011;52327;42.622;23.316;2022-10-13T16:08:52;1.60;;;1.33;;
65636;SDS011;52327;42.622;23.316;2022-10-13T16:11:18;0.88;;;0.88;;
65636;SDS011;52327;42.622;23.316;2022-10-13T16:13:48;1.20;;;0.77;;
65636;SDS011;52327;42.622;23.316;2022-10-13T16:16:16;1.58;;;1.25;;
65636;SDS011;52327;42.622;23.316;2022-10-13T16:18:42;1.65;;;0.98;;
65636;SDS011;52327;42.622;23.316;2022-10-13T16:21:12;5.57;;;1.67;;
65636;SDS011;52327;42.622;23.316;2022-10-13T16:23:42;2.35;;;1.42;;
65636;SDS011;52327;42.622;23.316;2022-10-13T16:26:08;2.85;;;1.73;;
65636;SDS011;52327;42.622;23.316;2022-10-13T16:28:34;1.48;;;1.08;;
65636;SDS011;52327;42.622;23.316;2022-10-13T16:31:04;1.98;;;1.27;;
65636;SDS011;52327;42.622;23.316;2022-10-13T16:33:35;1.70;;;1.13;;
65636;SDS011;52327;42.622;23.316;2022-10-13T16:36:07;1.37;;;1.07;;
65636;SDS011;52327;42.622;23.316;2022-10-13T16:38:35;2.15;;;1.45;;
65636;SDS011;52327;42.622;23.316;2022-10-13T16:41:05;2.17;;;1.58;;
65636;SDS011;52327;42.622;23.316;2022-10-13T16:43:32;3.05;;;2.00;;
65636;SDS011;52327;42.622;23.316;2022-10-13T16:45:59;1.83;;;1.52;;
65636;SDS011;52327;42.622;23.316;2022-10-13T16:48:27;2.20;;;1.42;;
65636;SDS011;52327;42.622;23.316;2022-10-13T16:50:54;4.78;;;2.17;;
65636;SDS011;52327;42.622;23.316;2022-10-13T16:53:19;2.70;;;1.77;;
65636;SDS011;52327;42.622;23.316;2022-10-13T16:55:45;1.58;;;1.15;;
65636;SDS011;52327;42.622;23.316;2022-10-13T16:58:10;2.17;;;1.33;;
65636;SDS011;52327;42.622;23.316;2022-10-13T17:00:36;4.22;;;2.28;;